sensor_id;sensor_type;location;lat;lon;timestamp;temperature;humidity
30206;DHT22;17010;51.306;3.150;2023-07-22T06:28:18;20.60;99.90
30206;DHT22;17010;51.306;3.150;2023-07-22T06:30:44;20.90;99.90
30206;DHT22;17010;51.306;3.150;2023-07-22T06:33:10;21.10;99.90
30206;DHT22;17010;51.306;3.150;2023-07-22T06:35:36;21.30;99.90
30206;DHT22;17010;51.306;3.150;2023-07-22T06:38:04;21.40;99.90
30206;DHT22;17010;51.306;3.150;2023-07-22T06:40:30;21.40;99.90
30206;DHT22;17010;51.306;3.150;2023-07-22T07:20:14;21.50;99.90
30206;DHT22;17010;51.306;3.150;2023-07-22T07:22:41;21.90;99.90
30206;DHT22;17010;51.306;3.150;2023-07-22T07:25:10;22.20;99.90
30206;DHT22;17010;51.306;3.150;2023-07-22T07:27:37;22.50;99.90
30206;DHT22;17010;51.306;3.150;2023-07-22T07:30:04;22.80;99.90
30206;DHT22;17010;51.306;3.150;2023-07-22T07:32:31;23.10;99.90
30206;DHT22;17010;51.306;3.150;2023-07-22T07:34:57;23.20;99.90
30206;DHT22;17010;51.306;3.150;2023-07-22T07:37:23;23.50;99.90
30206;DHT22;17010;51.306;3.150;2023-07-22T07:39:49;23.60;99.90
30206;DHT22;17010;51.306;3.150;2023-07-22T07:42:16;23.70;99.90
30206;DHT22;17010;51.306;3.150;2023-07-22T07:44:42;23.60;99.90
30206;DHT22;17010;51.306;3.150;2023-07-22T07:47:08;23.40;99.90
30206;DHT22;17010;51.306;3.150;2023-07-22T07:49:35;23.30;99.90
30206;DHT22;17010;51.306;3.150;2023-07-22T07:52:01;23.20;99.90
30206;DHT22;17010;51.306;3.150;2023-07-22T07:54:28;23.40;99.90
30206;DHT22;17010;51.306;3.150;2023-07-22T07:56:56;23.60;99.90
30206;DHT22;17010;51.306;3.150;2023-07-22T07:59:22;23.60;99.90
30206;DHT22;17010;51.306;3.150;2023-07-22T08:01:48;23.60;99.90
30206;DHT22;17010;51.306;3.150;2023-07-22T08:04:14;23.40;99.90
30206;DHT22;17010;51.306;3.150;2023-07-22T08:06:43;23.40;99.90
30206;DHT22;17010;51.306;3.150;2023-07-22T08:09:09;23.60;99.90
30206;DHT22;17010;51.306;3.150;2023-07-22T08:11:37;23.90;99.90
30206;DHT22;17010;51.306;3.150;2023-07-22T08:14:09;24.00;99.90
30206;DHT22;17010;51.306;3.150;2023-07-22T08:16:35;24.00;99.90
30206;DHT22;17010;51.306;3.150;2023-07-22T08:19:02;23.90;99.90
30206;DHT22;17010;51.306;3.150;2023-07-22T08:21:28;23.80;99.90
30206;DHT22;17010;51.306;3.150;2023-07-22T08:23:54;23.70;99.90
30206;DHT22;17010;51.306;3.150;2023-07-22T08:26:20;23.40;99.90
30206;DHT22;17010;51.306;3.150;2023-07-22T08:28:47;23.10;99.90
30206;DHT22;17010;51.306;3.150;2023-07-22T08:31:13;22.90;99.90
30206;DHT22;17010;51.306;3.150;2023-07-22T08:33:40;22.80;99.90
30206;DHT22;17010;51.306;3.150;2023-07-22T08:36:06;22.90;99.90
30206;DHT22;17010;51.306;3.150;2023-07-22T08:38:32;22.90;99.90
30206;DHT22;17010;51.306;3.150;2023-07-22T08:41:00;22.90;99.90
30206;DHT22;17010;51.306;3.150;2023-07-22T08:43:27;23.00;99.90
30206;DHT22;17010;51.306;3.150;2023-07-22T08:45:53;23.10;99.90
30206;DHT22;17010;51.306;3.150;2023-07-22T08:48:21;23.30;99.90
30206;DHT22;17010;51.306;3.150;2023-07-22T08:51:03;23.90;99.90
30206;DHT22;17010;51.306;3.150;2023-07-22T08:53:30;24.40;99.90
30206;DHT22;17010;51.306;3.150;2023-07-22T08:56:00;24.70;99.90
30206;DHT22;17010;51.306;3.150;2023-07-22T08:58:26;25.20;99.90
30206;DHT22;17010;51.306;3.150;2023-07-22T09:00:52;25.90;99.90
30206;DHT22;17010;51.306;3.150;2023-07-22T09:03:21;26.20;99.90
30206;DHT22;17010;51.306;3.150;2023-07-22T09:05:47;26.20;99.90
30206;DHT22;17010;51.306;3.150;2023-07-22T09:08:14;25.80;99.90
30206;DHT22;17010;51.306;3.150;2023-07-22T09:10:40;25.30;99.90
30206;DHT22;17010;51.306;3.150;2023-07-22T09:13:07;24.70;99.90
30206;DHT22;17010;51.306;3.150;2023-07-22T09:15:35;24.10;99.90
30206;DHT22;17010;51.306;3.150;2023-07-22T09:18:04;23.50;99.90
30206;DHT22;17010;51.306;3.150;2023-07-22T09:20:44;22.90;99.90
30206;DHT22;17010;51.306;3.150;2023-07-22T09:23:12;22.40;99.90
30206;DHT22;17010;51.306;3.150;2023-07-22T10:18:05;21.60;99.90
30206;DHT22;17010;51.306;3.150;2023-07-22T10:20:38;22.00;99.90
30206;DHT22;17010;51.306;3.150;2023-07-22T10:23:13;22.30;99.90
30206;DHT22;17010;51.306;3.150;2023-07-22T10:25:41;22.30;99.90
30206;DHT22;17010;51.306;3.150;2023-07-22T10:28:08;22.50;99.90
30206;DHT22;17010;51.306;3.150;2023-07-22T10:30:34;22.60;99.90
30206;DHT22;17010;51.306;3.150;2023-07-22T10:33:00;22.80;99.90
30206;DHT22;17010;51.306;3.150;2023-07-22T10:36:28;22.80;99.90
30206;DHT22;17010;51.306;3.150;2023-07-22T10:39:08;22.60;99.90
30206;DHT22;17010;51.306;3.150;2023-07-22T10:42:17;22.40;99.90
30206;DHT22;17010;51.306;3.150;2023-07-22T10:45:28;22.30;99.90
30206;DHT22;17010;51.306;3.150;2023-07-22T10:48:11;22.30;99.90
30206;DHT22;17010;51.306;3.150;2023-07-22T10:50:48;22.50;99.90
30206;DHT22;17010;51.306;3.150;2023-07-22T11:12:12;25.80;99.90
30206;DHT22;17010;51.306;3.150;2023-07-22T11:14:47;25.60;99.90
30206;DHT22;17010;51.306;3.150;2023-07-22T11:17:17;25.40;99.90
30206;DHT22;17010;51.306;3.150;2023-07-22T11:19:43;25.30;99.90
30206;DHT22;17010;51.306;3.150;2023-07-22T11:22:10;24.70;99.90
30206;DHT22;17010;51.306;3.150;2023-07-22T11:24:36;24.10;99.90
30206;DHT22;17010;51.306;3.150;2023-07-22T11:27:07;23.50;99.90
30206;DHT22;17010;51.306;3.150;2023-07-22T11:29:36;23.20;99.90
30206;DHT22;17010;51.306;3.150;2023-07-22T11:32:28;22.70;99.90
30206;DHT22;17010;51.306;3.150;2023-07-22T11:35:16;22.50;99.90
30206;DHT22;17010;51.306;3.150;2023-07-22T12:04:23;22.40;99.90
30206;DHT22;17010;51.306;3.150;2023-07-22T12:06:50;23.50;99.90
30206;DHT22;17010;51.306;3.150;2023-07-22T12:09:17;24.40;99.90
30206;DHT22;17010;51.306;3.150;2023-07-22T12:11:44;24.40;99.90
30206;DHT22;17010;51.306;3.150;2023-07-22T12:14:11;24.20;99.90
30206;DHT22;17010;51.306;3.150;2023-07-22T12:16:40;23.80;99.90
30206;DHT22;17010;51.306;3.150;2023-07-22T12:19:07;23.40;99.90
30206;DHT22;17010;51.306;3.150;2023-07-22T12:21:35;22.90;99.90
30206;DHT22;17010;51.306;3.150;2023-07-22T12:24:02;22.60;99.90
30206;DHT22;17010;51.306;3.150;2023-07-22T12:26:31;22.30;99.90
30206;DHT22;17010;51.306;3.150;2023-07-22T12:28:57;22.40;99.90
30206;DHT22;17010;51.306;3.150;2023-07-22T12:31:26;22.60;99.90
30206;DHT22;17010;51.306;3.150;2023-07-22T12:33:53;22.50;99.90
30206;DHT22;17010;51.306;3.150;2023-07-22T12:36:19;22.80;99.90
30206;DHT22;17010;51.306;3.150;2023-07-22T12:38:45;22.80;99.90
30206;DHT22;17010;51.306;3.150;2023-07-22T12:41:11;22.90;99.90
30206;DHT22;17010;51.306;3.150;2023-07-22T12:43:38;23.20;99.90
30206;DHT22;17010;51.306;3.150;2023-07-22T12:46:04;23.50;99.90
30206;DHT22;17010;51.306;3.150;2023-07-22T12:48:30;23.50;99.90
30206;DHT22;17010;51.306;3.150;2023-07-22T12:50:57;23.50;99.90
30206;DHT22;17010;51.306;3.150;2023-07-22T12:53:25;23.60;99.90
30206;DHT22;17010;51.306;3.150;2023-07-22T12:55:51;23.60;99.90
30206;DHT22;17010;51.306;3.150;2023-07-22T12:58:19;23.60;99.90
30206;DHT22;17010;51.306;3.150;2023-07-22T13:00:45;23.90;99.90
30206;DHT22;17010;51.306;3.150;2023-07-22T13:03:12;24.10;99.90
30206;DHT22;17010;51.306;3.150;2023-07-22T13:05:40;24.10;99.90
30206;DHT22;17010;51.306;3.150;2023-07-22T13:08:06;24.10;99.90
30206;DHT22;17010;51.306;3.150;2023-07-22T13:10:35;23.90;99.90
30206;DHT22;17010;51.306;3.150;2023-07-22T13:13:06;23.90;99.90
30206;DHT22;17010;51.306;3.150;2023-07-22T13:15:32;24.10;99.90
30206;DHT22;17010;51.306;3.150;2023-07-22T13:17:59;24.00;99.90
30206;DHT22;17010;51.306;3.150;2023-07-22T13:20:26;23.90;99.90
30206;DHT22;17010;51.306;3.150;2023-07-22T13:22:52;23.90;99.90
30206;DHT22;17010;51.306;3.150;2023-07-22T13:25:18;24.00;99.90
30206;DHT22;17010;51.306;3.150;2023-07-22T13:27:44;24.10;99.90
30206;DHT22;17010;51.306;3.150;2023-07-22T13:30:10;24.30;99.90
30206;DHT22;17010;51.306;3.150;2023-07-22T13:32:37;24.40;99.90
30206;DHT22;17010;51.306;3.150;2023-07-22T13:35:03;24.70;99.90
30206;DHT22;17010;51.306;3.150;2023-07-22T13:37:30;24.90;99.90
30206;DHT22;17010;51.306;3.150;2023-07-22T13:39:56;25.10;99.90
30206;DHT22;17010;51.306;3.150;2023-07-22T13:42:24;24.90;99.90
30206;DHT22;17010;51.306;3.150;2023-07-22T13:44:52;24.90;99.90
30206;DHT22;17010;51.306;3.150;2023-07-22T13:47:20;24.70;99.90
30206;DHT22;17010;51.306;3.150;2023-07-22T13:49:47;24.70;99.90
30206;DHT22;17010;51.306;3.150;2023-07-22T13:52:13;24.60;99.90
30206;DHT22;17010;51.306;3.150;2023-07-22T13:54:41;24.30;99.90
30206;DHT22;17010;51.306;3.150;2023-07-22T13:57:07;24.20;99.90
30206;DHT22;17010;51.306;3.150;2023-07-22T13:59:33;23.90;99.90
30206;DHT22;17010;51.306;3.150;2023-07-22T14:02:00;23.80;99.90
30206;DHT22;17010;51.306;3.150;2023-07-22T14:04:26;23.60;99.90
30206;DHT22;17010;51.306;3.150;2023-07-22T14:06:52;23.60;99.90
30206;DHT22;17010;51.306;3.150;2023-07-22T14:09:18;23.70;99.90
30206;DHT22;17010;51.306;3.150;2023-07-22T14:11:45;23.60;99.90
30206;DHT22;17010;51.306;3.150;2023-07-22T14:14:11;23.60;99.90
30206;DHT22;17010;51.306;3.150;2023-07-22T14:16:37;23.70;99.90
30206;DHT22;17010;51.306;3.150;2023-07-22T14:19:03;23.80;99.90
30206;DHT22;17010;51.306;3.150;2023-07-22T14:21:30;23.80;99.90
30206;DHT22;17010;51.306;3.150;2023-07-22T14:23:57;23.60;99.90
30206;DHT22;17010;51.306;3.150;2023-07-22T14:26:24;23.40;99.90
30206;DHT22;17010;51.306;3.150;2023-07-22T14:28:54;23.10;99.90
30206;DHT22;17010;51.306;3.150;2023-07-22T14:31:20;22.90;99.90
30206;DHT22;17010;51.306;3.150;2023-07-22T14:33:47;22.80;99.90
30206;DHT22;17010;51.306;3.150;2023-07-22T14:36:14;22.70;99.90
30206;DHT22;17010;51.306;3.150;2023-07-22T14:38:40;22.80;99.90
30206;DHT22;17010;51.306;3.150;2023-07-22T14:41:07;22.80;99.90
30206;DHT22;17010;51.306;3.150;2023-07-22T14:43:35;22.70;99.90
30206;DHT22;17010;51.306;3.150;2023-07-22T14:46:04;22.70;99.90
30206;DHT22;17010;51.306;3.150;2023-07-22T14:48:30;22.80;99.90
30206;DHT22;17010;51.306;3.150;2023-07-22T14:50:58;22.70;99.90
30206;DHT22;17010;51.306;3.150;2023-07-22T14:53:28;22.50;99.90
30206;DHT22;17010;51.306;3.150;2023-07-22T14:58:53;21.80;99.90
30206;DHT22;17010;51.306;3.150;2023-07-22T15:01:37;21.60;99.90
30206;DHT22;17010;51.306;3.150;2023-07-22T15:04:11;21.50;99.90
30206;DHT22;17010;51.306;3.150;2023-07-22T15:07:29;21.60;99.90
30206;DHT22;17010;51.306;3.150;2023-07-22T15:10:11;21.80;99.90
30206;DHT22;17010;51.306;3.150;2023-07-22T15:13:07;22.00;99.90
30206;DHT22;17010;51.306;3.150;2023-07-22T15:16:10;22.20;99.90
30206;DHT22;17010;51.306;3.150;2023-07-22T16:35:26;19.20;99.90
30206;DHT22;17010;51.306;3.150;2023-07-22T16:38:13;19.20;99.90
30206;DHT22;17010;51.306;3.150;2023-07-22T16:40:43;19.10;99.90
30206;DHT22;17010;51.306;3.150;2023-07-22T16:43:09;18.70;99.90
30206;DHT22;17010;51.306;3.150;2023-07-22T16:45:35;18.90;99.90
30206;DHT22;17010;51.306;3.150;2023-07-22T16:48:02;19.00;99.90
30206;DHT22;17010;51.306;3.150;2023-07-22T16:50:28;19.00;99.90
30206;DHT22;17010;51.306;3.150;2023-07-22T16:52:54;19.00;99.90
30206;DHT22;17010;51.306;3.150;2023-07-22T16:55:20;19.10;99.90
30206;DHT22;17010;51.306;3.150;2023-07-22T16:57:48;19.10;99.90
30206;DHT22;17010;51.306;3.150;2023-07-22T17:00:14;19.20;99.90
30206;DHT22;17010;51.306;3.150;2023-07-22T17:02:45;19.20;99.90
30206;DHT22;17010;51.306;3.150;2023-07-22T17:05:11;19.20;99.90
30206;DHT22;17010;51.306;3.150;2023-07-22T17:07:39;19.30;99.90
30206;DHT22;17010;51.306;3.150;2023-07-22T17:10:12;19.30;99.90
30206;DHT22;17010;51.306;3.150;2023-07-22T17:12:38;19.40;99.90
30206;DHT22;17010;51.306;3.150;2023-07-22T17:15:05;19.40;99.90
30206;DHT22;17010;51.306;3.150;2023-07-22T17:17:31;19.50;99.90
30206;DHT22;17010;51.306;3.150;2023-07-22T17:19:58;19.50;99.90
30206;DHT22;17010;51.306;3.150;2023-07-22T17:22:24;19.50;99.90
30206;DHT22;17010;51.306;3.150;2023-07-22T17:24:50;19.50;99.90
30206;DHT22;17010;51.306;3.150;2023-07-22T17:27:16;19.60;99.90
30206;DHT22;17010;51.306;3.150;2023-07-22T17:29:42;19.60;99.90
30206;DHT22;17010;51.306;3.150;2023-07-22T17:32:08;19.60;99.90
30206;DHT22;17010;51.306;3.150;2023-07-22T17:34:34;19.50;99.90
30206;DHT22;17010;51.306;3.150;2023-07-22T17:37:03;19.50;99.90
30206;DHT22;17010;51.306;3.150;2023-07-22T17:39:31;19.40;99.90
30206;DHT22;17010;51.306;3.150;2023-07-22T17:41:57;19.40;99.90
30206;DHT22;17010;51.306;3.150;2023-07-22T17:44:23;19.30;99.90
30206;DHT22;17010;51.306;3.150;2023-07-22T17:46:50;19.20;99.90
30206;DHT22;17010;51.306;3.150;2023-07-22T17:49:16;19.20;99.90
30206;DHT22;17010;51.306;3.150;2023-07-22T17:51:46;19.20;99.90
30206;DHT22;17010;51.306;3.150;2023-07-22T17:54:24;19.10;99.90
30206;DHT22;17010;51.306;3.150;2023-07-22T17:56:50;19.00;99.90
30206;DHT22;17010;51.306;3.150;2023-07-22T17:59:17;19.00;99.90
30206;DHT22;17010;51.306;3.150;2023-07-22T18:01:47;18.90;99.90
30206;DHT22;17010;51.306;3.150;2023-07-22T18:04:13;18.90;99.90
30206;DHT22;17010;51.306;3.150;2023-07-22T18:06:40;18.80;99.90
30206;DHT22;17010;51.306;3.150;2023-07-22T18:09:10;18.80;99.90
30206;DHT22;17010;51.306;3.150;2023-07-22T18:11:46;18.80;99.90
30206;DHT22;17010;51.306;3.150;2023-07-22T18:14:23;18.70;99.90
30206;DHT22;17010;51.306;3.150;2023-07-22T18:17:07;18.90;99.90
30206;DHT22;17010;51.306;3.150;2023-07-22T18:19:39;18.60;99.90
30206;DHT22;17010;51.306;3.150;2023-07-22T18:22:06;18.60;99.90
30206;DHT22;17010;51.306;3.150;2023-07-22T18:25:04;18.50;99.90
30206;DHT22;17010;51.306;3.150;2023-07-22T18:27:43;18.50;99.90
30206;DHT22;17010;51.306;3.150;2023-07-22T18:30:11;18.40;99.90
30206;DHT22;17010;51.306;3.150;2023-07-22T18:33:19;18.40;99.90
30206;DHT22;17010;51.306;3.150;2023-07-22T18:35:50;18.50;99.90
30206;DHT22;17010;51.306;3.150;2023-07-22T18:38:42;18.30;99.90
30206;DHT22;17010;51.306;3.150;2023-07-22T18:41:25;18.10;99.90
30206;DHT22;17010;51.306;3.150;2023-07-22T18:44:04;18.00;99.90
30206;DHT22;17010;51.306;3.150;2023-07-22T18:46:36;17.70;99.90
30206;DHT22;17010;51.306;3.150;2023-07-22T18:49:06;17.90;99.90
30206;DHT22;17010;51.306;3.150;2023-07-22T18:51:41;17.80;99.90
30206;DHT22;17010;51.306;3.150;2023-07-22T18:54:08;17.80;99.90
30206;DHT22;17010;51.306;3.150;2023-07-22T18:56:37;17.80;99.90
30206;DHT22;17010;51.306;3.150;2023-07-22T18:59:08;17.70;99.90
30206;DHT22;17010;51.306;3.150;2023-07-22T19:01:58;17.70;99.90
30206;DHT22;17010;51.306;3.150;2023-07-22T19:04:24;17.60;99.90
30206;DHT22;17010;51.306;3.150;2023-07-22T19:06:51;17.50;99.90
30206;DHT22;17010;51.306;3.150;2023-07-22T19:09:19;17.50;99.90
30206;DHT22;17010;51.306;3.150;2023-07-22T19:11:46;17.50;99.90
30206;DHT22;17010;51.306;3.150;2023-07-22T19:14:14;17.40;99.90
30206;DHT22;17010;51.306;3.150;2023-07-22T19:16:57;17.40;99.90
30206;DHT22;17010;51.306;3.150;2023-07-22T19:19:24;17.80;99.90
30206;DHT22;17010;51.306;3.150;2023-07-22T19:21:53;17.30;99.90
30206;DHT22;17010;51.306;3.150;2023-07-22T19:24:22;17.20;99.90
30206;DHT22;17010;51.306;3.150;2023-07-22T19:26:49;17.20;99.90
30206;DHT22;17010;51.306;3.150;2023-07-22T19:29:15;17.10;99.90
30206;DHT22;17010;51.306;3.150;2023-07-22T19:31:43;17.20;99.90
30206;DHT22;17010;51.306;3.150;2023-07-22T19:34:11;17.00;99.90
30206;DHT22;17010;51.306;3.150;2023-07-22T19:36:39;17.00;99.90
30206;DHT22;17010;51.306;3.150;2023-07-22T19:39:06;16.90;99.90
30206;DHT22;17010;51.306;3.150;2023-07-22T19:41:32;16.90;99.90
30206;DHT22;17010;51.306;3.150;2023-07-22T19:43:58;16.80;99.90
30206;DHT22;17010;51.306;3.150;2023-07-22T19:46:27;16.90;99.90
30206;DHT22;17010;51.306;3.150;2023-07-22T19:48:54;16.80;99.90
30206;DHT22;17010;51.306;3.150;2023-07-22T19:51:21;16.80;99.90
30206;DHT22;17010;51.306;3.150;2023-07-22T19:53:48;16.80;99.90
30206;DHT22;17010;51.306;3.150;2023-07-22T19:56:16;16.70;99.90
30206;DHT22;17010;51.306;3.150;2023-07-22T19:58:42;16.70;99.90
30206;DHT22;17010;51.306;3.150;2023-07-22T20:01:09;16.70;99.90
30206;DHT22;17010;51.306;3.150;2023-07-22T20:03:35;16.70;99.90
30206;DHT22;17010;51.306;3.150;2023-07-22T20:06:04;16.60;99.90
30206;DHT22;17010;51.306;3.150;2023-07-22T20:08:31;16.60;99.90
30206;DHT22;17010;51.306;3.150;2023-07-22T20:10:58;16.60;99.90
30206;DHT22;17010;51.306;3.150;2023-07-22T20:13:27;16.60;99.90
30206;DHT22;17010;51.306;3.150;2023-07-22T20:15:55;16.60;99.90
30206;DHT22;17010;51.306;3.150;2023-07-22T20:18:23;16.60;99.90
30206;DHT22;17010;51.306;3.150;2023-07-22T20:20:50;16.60;99.90
30206;DHT22;17010;51.306;3.150;2023-07-22T20:23:18;16.50;99.90
30206;DHT22;17010;51.306;3.150;2023-07-22T20:25:49;16.50;99.90
30206;DHT22;17010;51.306;3.150;2023-07-22T20:28:28;16.50;99.90
30206;DHT22;17010;51.306;3.150;2023-07-22T20:30:56;16.50;99.90
30206;DHT22;17010;51.306;3.150;2023-07-22T20:33:30;16.40;99.90
30206;DHT22;17010;51.306;3.150;2023-07-22T20:36:11;16.40;99.90
30206;DHT22;17010;51.306;3.150;2023-07-22T20:38:58;16.40;99.90
30206;DHT22;17010;51.306;3.150;2023-07-22T20:41:28;16.40;99.90
30206;DHT22;17010;51.306;3.150;2023-07-22T20:44:15;16.40;99.90
30206;DHT22;17010;51.306;3.150;2023-07-22T20:46:50;16.40;99.90
30206;DHT22;17010;51.306;3.150;2023-07-22T20:49:27;16.50;99.90
30206;DHT22;17010;51.306;3.150;2023-07-22T20:52:02;16.40;99.90
30206;DHT22;17010;51.306;3.150;2023-07-22T20:54:47;16.40;99.90
30206;DHT22;17010;51.306;3.150;2023-07-22T20:57:21;16.40;99.90
30206;DHT22;17010;51.306;3.150;2023-07-22T20:59:59;16.40;99.90
30206;DHT22;17010;51.306;3.150;2023-07-22T21:02:33;16.40;99.90
30206;DHT22;17010;51.306;3.150;2023-07-22T21:05:40;16.40;99.90
30206;DHT22;17010;51.306;3.150;2023-07-22T21:08:28;16.40;99.90
30206;DHT22;17010;51.306;3.150;2023-07-22T21:11:55;16.40;99.90
30206;DHT22;17010;51.306;3.150;2023-07-22T21:14:32;16.40;99.90
30206;DHT22;17010;51.306;3.150;2023-07-22T21:17:36;16.20;99.90
30206;DHT22;17010;51.306;3.150;2023-07-22T21:20:09;16.40;99.90
30206;DHT22;17010;51.306;3.150;2023-07-22T21:22:43;16.40;99.90
30206;DHT22;17010;51.306;3.150;2023-07-22T21:25:56;16.30;99.90
30206;DHT22;17010;51.306;3.150;2023-07-22T21:28:54;16.40;99.90
30206;DHT22;17010;51.306;3.150;2023-07-22T21:31:54;16.10;99.90
30206;DHT22;17010;51.306;3.150;2023-07-22T21:34:20;16.30;99.90
30206;DHT22;17010;51.306;3.150;2023-07-22T21:37:06;16.40;99.90
30206;DHT22;17010;51.306;3.150;2023-07-22T21:39:43;16.40;99.90
30206;DHT22;17010;51.306;3.150;2023-07-22T21:42:51;16.40;99.90
30206;DHT22;17010;51.306;3.150;2023-07-22T21:45:36;16.40;99.90
30206;DHT22;17010;51.306;3.150;2023-07-22T21:48:19;16.40;99.90
30206;DHT22;17010;51.306;3.150;2023-07-22T21:50:55;16.40;99.90
30206;DHT22;17010;51.306;3.150;2023-07-22T21:53:35;16.40;99.90
30206;DHT22;17010;51.306;3.150;2023-07-22T21:56:13;16.40;99.90
30206;DHT22;17010;51.306;3.150;2023-07-22T21:58:47;16.40;99.90
30206;DHT22;17010;51.306;3.150;2023-07-22T22:01:26;16.40;99.90
30206;DHT22;17010;51.306;3.150;2023-07-22T22:03:58;16.30;99.90
30206;DHT22;17010;51.306;3.150;2023-07-22T22:06:49;16.40;99.90
30206;DHT22;17010;51.306;3.150;2023-07-22T22:09:49;16.40;99.90
30206;DHT22;17010;51.306;3.150;2023-07-22T22:12:33;16.30;99.90
30206;DHT22;17010;51.306;3.150;2023-07-22T22:15:47;16.30;99.90
30206;DHT22;17010;51.306;3.150;2023-07-22T22:18:26;16.20;99.90
30206;DHT22;17010;51.306;3.150;2023-07-22T22:21:24;16.30;99.90
30206;DHT22;17010;51.306;3.150;2023-07-22T22:23:54;16.30;99.90
30206;DHT22;17010;51.306;3.150;2023-07-22T22:26:24;16.30;99.90
30206;DHT22;17010;51.306;3.150;2023-07-22T22:28:53;16.30;99.90
30206;DHT22;17010;51.306;3.150;2023-07-22T22:31:41;16.40;99.90
30206;DHT22;17010;51.306;3.150;2023-07-22T22:34:16;16.40;99.90
30206;DHT22;17010;51.306;3.150;2023-07-22T22:37:00;16.40;99.90
30206;DHT22;17010;51.306;3.150;2023-07-22T22:39:40;16.40;99.90
30206;DHT22;17010;51.306;3.150;2023-07-22T22:42:35;16.30;99.90
30206;DHT22;17010;51.306;3.150;2023-07-22T22:45:19;16.50;99.90
30206;DHT22;17010;51.306;3.150;2023-07-22T22:47:52;16.50;99.90
30206;DHT22;17010;51.306;3.150;2023-07-22T22:53:13;16.40;99.90
30206;DHT22;17010;51.306;3.150;2023-07-22T22:59:03;16.50;99.90
30206;DHT22;17010;51.306;3.150;2023-07-22T23:02:05;16.50;99.90
30206;DHT22;17010;51.306;3.150;2023-07-22T23:05:13;16.60;99.90
30206;DHT22;17010;51.306;3.150;2023-07-22T23:08:02;16.60;99.90
30206;DHT22;17010;51.306;3.150;2023-07-22T23:10:29;16.60;99.90
30206;DHT22;17010;51.306;3.150;2023-07-22T23:13:02;16.50;99.90
30206;DHT22;17010;51.306;3.150;2023-07-22T23:15:56;16.60;99.90
30206;DHT22;17010;51.306;3.150;2023-07-22T23:19:14;16.60;99.90
30206;DHT22;17010;51.306;3.150;2023-07-22T23:21:43;16.60;99.90
30206;DHT22;17010;51.306;3.150;2023-07-22T23:24:15;16.60;99.90
30206;DHT22;17010;51.306;3.150;2023-07-22T23:27:30;16.60;99.90
30206;DHT22;17010;51.306;3.150;2023-07-22T23:30:21;16.60;99.90
30206;DHT22;17010;51.306;3.150;2023-07-22T23:33:40;16.60;99.90
30206;DHT22;17010;51.306;3.150;2023-07-22T23:36:27;16.60;99.90
30206;DHT22;17010;51.306;3.150;2023-07-22T23:39:11;16.60;99.90
30206;DHT22;17010;51.306;3.150;2023-07-22T23:42:20;16.60;99.90
30206;DHT22;17010;51.306;3.150;2023-07-22T23:44:56;16.50;99.90
30206;DHT22;17010;51.306;3.150;2023-07-22T23:48:12;16.60;99.90
30206;DHT22;17010;51.306;3.150;2023-07-22T23:50:53;16.60;99.90
30206;DHT22;17010;51.306;3.150;2023-07-22T23:54:11;16.60;99.90
30206;DHT22;17010;51.306;3.150;2023-07-22T23:57:28;16.60;99.90
